sensor_id;sensor_type;location;lat;lon;timestamp;temperature;humidity
25208;DHT22;13153;52.316;21.166;2023-08-06T00:01:50;20.30;99.90
25208;DHT22;13153;52.316;21.166;2023-08-06T00:04:16;20.30;99.90
25208;DHT22;13153;52.316;21.166;2023-08-06T00:06:42;20.20;99.90
25208;DHT22;13153;52.316;21.166;2023-08-06T00:09:08;20.20;99.90
25208;DHT22;13153;52.316;21.166;2023-08-06T00:11:34;20.30;99.90
25208;DHT22;13153;52.316;21.166;2023-08-06T00:13:59;20.30;99.90
25208;DHT22;13153;52.316;21.166;2023-08-06T00:16:25;20.30;99.90
25208;DHT22;13153;52.316;21.166;2023-08-06T00:18:51;20.30;99.90
25208;DHT22;13153;52.316;21.166;2023-08-06T00:21:17;20.40;99.90
25208;DHT22;13153;52.316;21.166;2023-08-06T00:23:43;20.40;99.90
25208;DHT22;13153;52.316;21.166;2023-08-06T00:26:08;20.40;99.90
25208;DHT22;13153;52.316;21.166;2023-08-06T00:28:34;20.50;99.90
25208;DHT22;13153;52.316;21.166;2023-08-06T00:31:00;20.50;99.90
25208;DHT22;13153;52.316;21.166;2023-08-06T00:33:26;20.50;99.90
25208;DHT22;13153;52.316;21.166;2023-08-06T00:35:51;20.50;99.90
25208;DHT22;13153;52.316;21.166;2023-08-06T00:38:17;20.60;99.90
25208;DHT22;13153;52.316;21.166;2023-08-06T00:40:43;20.60;99.90
25208;DHT22;13153;52.316;21.166;2023-08-06T00:43:09;20.60;99.90
25208;DHT22;13153;52.316;21.166;2023-08-06T00:45:35;20.60;99.90
25208;DHT22;13153;52.316;21.166;2023-08-06T00:48:04;20.60;99.90
25208;DHT22;13153;52.316;21.166;2023-08-06T00:50:32;20.60;99.90
25208;DHT22;13153;52.316;21.166;2023-08-06T00:52:58;20.60;99.90
25208;DHT22;13153;52.316;21.166;2023-08-06T00:55:25;20.60;99.90
25208;DHT22;13153;52.316;21.166;2023-08-06T00:57:51;20.70;99.90
25208;DHT22;13153;52.316;21.166;2023-08-06T01:00:19;20.60;99.90
25208;DHT22;13153;52.316;21.166;2023-08-06T01:02:46;20.60;99.90
25208;DHT22;13153;52.316;21.166;2023-08-06T01:05:13;20.60;99.90
25208;DHT22;13153;52.316;21.166;2023-08-06T01:15:50;20.60;99.90
25208;DHT22;13153;52.316;21.166;2023-08-06T01:18:22;20.50;99.90
25208;DHT22;13153;52.316;21.166;2023-08-06T01:20:48;20.60;99.90
25208;DHT22;13153;52.316;21.166;2023-08-06T01:23:15;20.50;99.90
25208;DHT22;13153;52.316;21.166;2023-08-06T01:31:44;20.50;99.90
25208;DHT22;13153;52.316;21.166;2023-08-06T01:34:22;20.40;99.90
25208;DHT22;13153;52.316;21.166;2023-08-06T01:36:50;20.40;99.90
25208;DHT22;13153;52.316;21.166;2023-08-06T01:39:17;20.40;99.90
25208;DHT22;13153;52.316;21.166;2023-08-06T01:41:47;20.30;99.90
25208;DHT22;13153;52.316;21.166;2023-08-06T01:44:13;20.30;99.90
25208;DHT22;13153;52.316;21.166;2023-08-06T01:46:40;20.30;99.90
25208;DHT22;13153;52.316;21.166;2023-08-06T01:49:05;20.20;99.90
25208;DHT22;13153;52.316;21.166;2023-08-06T01:51:31;20.20;99.90
25208;DHT22;13153;52.316;21.166;2023-08-06T01:53:57;20.10;99.90
25208;DHT22;13153;52.316;21.166;2023-08-06T01:56:23;20.00;99.90
25208;DHT22;13153;52.316;21.166;2023-08-06T01:58:48;19.90;99.90
25208;DHT22;13153;52.316;21.166;2023-08-06T02:01:14;19.90;99.90
25208;DHT22;13153;52.316;21.166;2023-08-06T02:03:40;19.90;99.90
25208;DHT22;13153;52.316;21.166;2023-08-06T02:06:05;19.90;99.90
25208;DHT22;13153;52.316;21.166;2023-08-06T02:08:31;19.90;99.90
25208;DHT22;13153;52.316;21.166;2023-08-06T02:10:57;19.90;99.90
25208;DHT22;13153;52.316;21.166;2023-08-06T02:13:24;19.90;99.90
25208;DHT22;13153;52.316;21.166;2023-08-06T02:15:49;19.80;99.90
25208;DHT22;13153;52.316;21.166;2023-08-06T02:18:15;19.80;99.90
25208;DHT22;13153;52.316;21.166;2023-08-06T02:20:42;19.80;99.90
25208;DHT22;13153;52.316;21.166;2023-08-06T02:23:08;19.80;99.90
25208;DHT22;13153;52.316;21.166;2023-08-06T02:25:34;19.80;99.90
25208;DHT22;13153;52.316;21.166;2023-08-06T02:28:01;19.80;99.90
25208;DHT22;13153;52.316;21.166;2023-08-06T02:30:27;19.80;99.90
25208;DHT22;13153;52.316;21.166;2023-08-06T02:32:52;19.80;99.90
25208;DHT22;13153;52.316;21.166;2023-08-06T02:35:18;19.80;99.90
25208;DHT22;13153;52.316;21.166;2023-08-06T02:37:44;19.80;99.90
25208;DHT22;13153;52.316;21.166;2023-08-06T02:40:10;19.80;99.90
25208;DHT22;13153;52.316;21.166;2023-08-06T02:42:36;19.80;99.90
25208;DHT22;13153;52.316;21.166;2023-08-06T02:45:02;19.80;99.90
25208;DHT22;13153;52.316;21.166;2023-08-06T02:47:28;19.80;99.90
25208;DHT22;13153;52.316;21.166;2023-08-06T02:49:53;19.80;99.90
25208;DHT22;13153;52.316;21.166;2023-08-06T02:52:19;19.80;99.90
25208;DHT22;13153;52.316;21.166;2023-08-06T02:54:45;19.80;99.90
25208;DHT22;13153;52.316;21.166;2023-08-06T02:57:10;19.80;99.90
25208;DHT22;13153;52.316;21.166;2023-08-06T02:59:36;19.80;99.90
25208;DHT22;13153;52.316;21.166;2023-08-06T03:02:02;19.80;99.90
25208;DHT22;13153;52.316;21.166;2023-08-06T03:04:28;19.70;99.90
25208;DHT22;13153;52.316;21.166;2023-08-06T03:06:53;19.70;99.90
25208;DHT22;13153;52.316;21.166;2023-08-06T03:09:19;19.80;99.90
25208;DHT22;13153;52.316;21.166;2023-08-06T03:11:45;19.70;99.90
25208;DHT22;13153;52.316;21.166;2023-08-06T03:14:11;19.70;99.90
25208;DHT22;13153;52.316;21.166;2023-08-06T03:16:36;19.70;99.90
25208;DHT22;13153;52.316;21.166;2023-08-06T03:19:02;19.80;99.90
25208;DHT22;13153;52.316;21.166;2023-08-06T03:21:28;19.80;99.90
25208;DHT22;13153;52.316;21.166;2023-08-06T03:23:54;19.70;99.90
25208;DHT22;13153;52.316;21.166;2023-08-06T03:26:19;19.80;99.90
25208;DHT22;13153;52.316;21.166;2023-08-06T03:28:45;19.80;99.90
25208;DHT22;13153;52.316;21.166;2023-08-06T03:31:11;19.80;99.90
25208;DHT22;13153;52.316;21.166;2023-08-06T03:33:36;19.80;99.90
25208;DHT22;13153;52.316;21.166;2023-08-06T03:36:02;19.80;99.90
25208;DHT22;13153;52.316;21.166;2023-08-06T03:38:28;19.80;99.90
25208;DHT22;13153;52.316;21.166;2023-08-06T03:40:54;19.80;99.90
25208;DHT22;13153;52.316;21.166;2023-08-06T03:43:20;19.80;99.90
25208;DHT22;13153;52.316;21.166;2023-08-06T03:45:45;19.80;99.90
25208;DHT22;13153;52.316;21.166;2023-08-06T03:48:11;19.80;99.90
25208;DHT22;13153;52.316;21.166;2023-08-06T03:50:37;19.80;99.90
25208;DHT22;13153;52.316;21.166;2023-08-06T03:53:03;19.80;99.90
25208;DHT22;13153;52.316;21.166;2023-08-06T03:55:29;19.90;99.90
25208;DHT22;13153;52.316;21.166;2023-08-06T03:57:55;19.80;99.90
25208;DHT22;13153;52.316;21.166;2023-08-06T04:00:20;19.80;99.90
25208;DHT22;13153;52.316;21.166;2023-08-06T04:02:46;19.90;99.90
25208;DHT22;13153;52.316;21.166;2023-08-06T04:05:12;19.80;99.90
25208;DHT22;13153;52.316;21.166;2023-08-06T04:07:38;19.90;99.90
25208;DHT22;13153;52.316;21.166;2023-08-06T04:10:04;19.90;99.90
25208;DHT22;13153;52.316;21.166;2023-08-06T04:12:31;19.90;99.90
25208;DHT22;13153;52.316;21.166;2023-08-06T04:14:59;19.90;99.90
25208;DHT22;13153;52.316;21.166;2023-08-06T04:17:26;19.90;99.90
25208;DHT22;13153;52.316;21.166;2023-08-06T04:19:53;20.00;99.90
25208;DHT22;13153;52.316;21.166;2023-08-06T04:22:20;19.90;99.90
25208;DHT22;13153;52.316;21.166;2023-08-06T04:24:47;20.00;99.90
25208;DHT22;13153;52.316;21.166;2023-08-06T04:27:14;20.00;99.90
25208;DHT22;13153;52.316;21.166;2023-08-06T04:29:41;20.10;99.90
25208;DHT22;13153;52.316;21.166;2023-08-06T04:32:09;20.10;99.90
25208;DHT22;13153;52.316;21.166;2023-08-06T04:34:36;20.10;99.90
25208;DHT22;13153;52.316;21.166;2023-08-06T04:37:03;20.20;99.90
25208;DHT22;13153;52.316;21.166;2023-08-06T04:39:30;20.20;99.90
25208;DHT22;13153;52.316;21.166;2023-08-06T04:41:58;20.20;99.90
25208;DHT22;13153;52.316;21.166;2023-08-06T04:44:24;20.20;99.90
25208;DHT22;13153;52.316;21.166;2023-08-06T04:46:50;20.30;99.90
25208;DHT22;13153;52.316;21.166;2023-08-06T04:49:16;20.30;99.90
25208;DHT22;13153;52.316;21.166;2023-08-06T04:51:42;20.40;99.90
25208;DHT22;13153;52.316;21.166;2023-08-06T04:54:08;20.50;99.90
25208;DHT22;13153;52.316;21.166;2023-08-06T04:56:34;20.60;99.90
25208;DHT22;13153;52.316;21.166;2023-08-06T04:58:59;20.70;99.90
25208;DHT22;13153;52.316;21.166;2023-08-06T05:01:25;20.80;99.90
25208;DHT22;13153;52.316;21.166;2023-08-06T05:03:51;21.10;99.90
25208;DHT22;13153;52.316;21.166;2023-08-06T05:06:17;21.50;99.90
25208;DHT22;13153;52.316;21.166;2023-08-06T05:08:43;21.90;99.90
25208;DHT22;13153;52.316;21.166;2023-08-06T05:11:09;22.70;99.90
25208;DHT22;13153;52.316;21.166;2023-08-06T05:13:35;23.50;99.90
25208;DHT22;13153;52.316;21.166;2023-08-06T05:16:00;24.10;99.90
25208;DHT22;13153;52.316;21.166;2023-08-06T05:18:26;24.70;99.90
25208;DHT22;13153;52.316;21.166;2023-08-06T05:20:52;25.50;99.90
25208;DHT22;13153;52.316;21.166;2023-08-06T05:23:18;26.60;99.90
25208;DHT22;13153;52.316;21.166;2023-08-06T05:25:43;27.60;99.90
25208;DHT22;13153;52.316;21.166;2023-08-06T05:28:09;28.10;99.90
25208;DHT22;13153;52.316;21.166;2023-08-06T05:30:39;29.00;99.90
25208;DHT22;13153;52.316;21.166;2023-08-06T05:33:05;29.40;99.90
25208;DHT22;13153;52.316;21.166;2023-08-06T05:35:31;30.30;99.90
25208;DHT22;13153;52.316;21.166;2023-08-06T05:37:57;30.90;99.90
25208;DHT22;13153;52.316;21.166;2023-08-06T05:40:23;30.90;99.90
25208;DHT22;13153;52.316;21.166;2023-08-06T05:42:51;31.20;99.90
25208;DHT22;13153;52.316;21.166;2023-08-06T05:45:19;31.70;99.90
25208;DHT22;13153;52.316;21.166;2023-08-06T05:47:44;32.70;99.90
25208;DHT22;13153;52.316;21.166;2023-08-06T05:50:10;33.90;99.90
25208;DHT22;13153;52.316;21.166;2023-08-06T05:52:36;33.80;99.90
25208;DHT22;13153;52.316;21.166;2023-08-06T05:55:02;34.10;99.90
25208;DHT22;13153;52.316;21.166;2023-08-06T05:57:28;34.40;99.20
25208;DHT22;13153;52.316;21.166;2023-08-06T05:59:54;34.30;96.60
25208;DHT22;13153;52.316;21.166;2023-08-06T06:02:20;34.40;96.50
25208;DHT22;13153;52.316;21.166;2023-08-06T06:04:46;35.00;94.80
25208;DHT22;13153;52.316;21.166;2023-08-06T06:07:11;35.30;92.70
25208;DHT22;13153;52.316;21.166;2023-08-06T06:09:37;34.90;92.20
25208;DHT22;13153;52.316;21.166;2023-08-06T06:12:05;34.90;92.40
25208;DHT22;13153;52.316;21.166;2023-08-06T06:14:31;35.60;91.40
25208;DHT22;13153;52.316;21.166;2023-08-06T06:16:59;36.20;89.00
25208;DHT22;13153;52.316;21.166;2023-08-06T06:19:25;37.10;85.40
25208;DHT22;13153;52.316;21.166;2023-08-06T06:21:51;38.00;77.20
25208;DHT22;13153;52.316;21.166;2023-08-06T06:24:18;38.00;76.60
25208;DHT22;13153;52.316;21.166;2023-08-06T06:26:44;37.70;74.30
25208;DHT22;13153;52.316;21.166;2023-08-06T06:29:10;37.60;73.40
25208;DHT22;13153;52.316;21.166;2023-08-06T06:31:35;37.30;74.20
25208;DHT22;13153;52.316;21.166;2023-08-06T06:34:01;37.50;74.70
25208;DHT22;13153;52.316;21.166;2023-08-06T06:36:27;37.60;72.20
25208;DHT22;13153;52.316;21.166;2023-08-06T06:38:52;37.90;72.30
25208;DHT22;13153;52.316;21.166;2023-08-06T06:41:18;38.30;70.20
25208;DHT22;13153;52.316;21.166;2023-08-06T06:43:44;38.50;68.20
25208;DHT22;13153;52.316;21.166;2023-08-06T06:46:10;38.00;68.20
25208;DHT22;13153;52.316;21.166;2023-08-06T06:48:36;37.20;70.10
25208;DHT22;13153;52.316;21.166;2023-08-06T06:51:01;36.70;72.30
25208;DHT22;13153;52.316;21.166;2023-08-06T06:53:28;37.30;72.00
25208;DHT22;13153;52.316;21.166;2023-08-06T06:56:04;37.40;71.70
25208;DHT22;13153;52.316;21.166;2023-08-06T06:58:31;36.70;70.40
25208;DHT22;13153;52.316;21.166;2023-08-06T07:00:57;35.90;73.00
25208;DHT22;13153;52.316;21.166;2023-08-06T07:03:23;35.60;74.40
25208;DHT22;13153;52.316;21.166;2023-08-06T07:05:49;35.50;74.40
25208;DHT22;13153;52.316;21.166;2023-08-06T07:08:15;35.60;74.60
25208;DHT22;13153;52.316;21.166;2023-08-06T07:10:42;35.90;74.10
25208;DHT22;13153;52.316;21.166;2023-08-06T07:13:08;36.10;71.80
25208;DHT22;13153;52.316;21.166;2023-08-06T07:15:34;36.50;72.60
25208;DHT22;13153;52.316;21.166;2023-08-06T07:18:01;37.10;70.70
25208;DHT22;13153;52.316;21.166;2023-08-06T07:20:27;36.70;70.30
25208;DHT22;13153;52.316;21.166;2023-08-06T07:22:58;36.20;71.70
25208;DHT22;13153;52.316;21.166;2023-08-06T07:25:24;36.00;72.40
25208;DHT22;13153;52.316;21.166;2023-08-06T07:27:50;36.30;72.50
25208;DHT22;13153;52.316;21.166;2023-08-06T07:30:15;36.70;71.40
25208;DHT22;13153;52.316;21.166;2023-08-06T07:32:41;36.90;70.30
25208;DHT22;13153;52.316;21.166;2023-08-06T07:35:07;36.50;71.60
25208;DHT22;13153;52.316;21.166;2023-08-06T07:37:40;36.00;72.30
25208;DHT22;13153;52.316;21.166;2023-08-06T07:40:07;35.30;73.60
25208;DHT22;13153;52.316;21.166;2023-08-06T07:42:33;34.80;76.00
25208;DHT22;13153;52.316;21.166;2023-08-06T07:44:59;34.40;77.60
25208;DHT22;13153;52.316;21.166;2023-08-06T07:47:25;33.70;78.10
25208;DHT22;13153;52.316;21.166;2023-08-06T07:49:51;32.80;80.80
25208;DHT22;13153;52.316;21.166;2023-08-06T07:52:17;32.40;83.90
25208;DHT22;13153;52.316;21.166;2023-08-06T07:54:43;32.10;87.40
25208;DHT22;13153;52.316;21.166;2023-08-06T07:57:09;32.10;90.10
25208;DHT22;13153;52.316;21.166;2023-08-06T07:59:35;31.80;90.40
25208;DHT22;13153;52.316;21.166;2023-08-06T08:02:01;31.30;91.10
25208;DHT22;13153;52.316;21.166;2023-08-06T08:04:27;30.60;92.90
25208;DHT22;13153;52.316;21.166;2023-08-06T08:06:52;30.20;95.70
25208;DHT22;13153;52.316;21.166;2023-08-06T08:09:18;29.90;99.90
25208;DHT22;13153;52.316;21.166;2023-08-06T08:11:44;29.30;99.90
25208;DHT22;13153;52.316;21.166;2023-08-06T08:14:10;29.10;99.90
25208;DHT22;13153;52.316;21.166;2023-08-06T08:16:35;29.00;99.90
25208;DHT22;13153;52.316;21.166;2023-08-06T08:19:01;28.90;99.90
25208;DHT22;13153;52.316;21.166;2023-08-06T08:21:29;28.80;99.90
25208;DHT22;13153;52.316;21.166;2023-08-06T08:23:55;28.80;99.90
25208;DHT22;13153;52.316;21.166;2023-08-06T08:26:20;28.70;99.90
25208;DHT22;13153;52.316;21.166;2023-08-06T08:28:46;28.60;99.90
25208;DHT22;13153;52.316;21.166;2023-08-06T08:31:12;28.60;99.90
25208;DHT22;13153;52.316;21.166;2023-08-06T08:33:38;28.60;99.90
25208;DHT22;13153;52.316;21.166;2023-08-06T08:36:04;28.50;99.90
25208;DHT22;13153;52.316;21.166;2023-08-06T08:38:30;28.40;99.90
25208;DHT22;13153;52.316;21.166;2023-08-06T08:40:55;28.30;99.90
25208;DHT22;13153;52.316;21.166;2023-08-06T08:43:22;28.30;99.90
25208;DHT22;13153;52.316;21.166;2023-08-06T08:45:50;28.30;99.90
25208;DHT22;13153;52.316;21.166;2023-08-06T08:48:18;28.40;99.90
25208;DHT22;13153;52.316;21.166;2023-08-06T08:50:47;28.30;99.90
25208;DHT22;13153;52.316;21.166;2023-08-06T08:53:16;28.30;99.90
25208;DHT22;13153;52.316;21.166;2023-08-06T08:55:43;28.30;99.90
25208;DHT22;13153;52.316;21.166;2023-08-06T08:58:12;28.20;99.90
25208;DHT22;13153;52.316;21.166;2023-08-06T09:00:41;28.20;99.90
25208;DHT22;13153;52.316;21.166;2023-08-06T09:03:08;28.10;99.90
25208;DHT22;13153;52.316;21.166;2023-08-06T09:05:34;28.20;99.90
25208;DHT22;13153;52.316;21.166;2023-08-06T09:08:04;28.30;99.90
25208;DHT22;13153;52.316;21.166;2023-08-06T09:10:30;28.40;99.90
25208;DHT22;13153;52.316;21.166;2023-08-06T09:12:57;28.50;99.90
25208;DHT22;13153;52.316;21.166;2023-08-06T09:15:27;28.60;99.90
25208;DHT22;13153;52.316;21.166;2023-08-06T09:17:54;28.60;99.90
25208;DHT22;13153;52.316;21.166;2023-08-06T09:20:20;28.60;99.90
25208;DHT22;13153;52.316;21.166;2023-08-06T09:22:46;28.50;99.90
25208;DHT22;13153;52.316;21.166;2023-08-06T09:25:22;28.40;99.90
25208;DHT22;13153;52.316;21.166;2023-08-06T09:27:50;28.50;99.90
25208;DHT22;13153;52.316;21.166;2023-08-06T09:30:30;28.60;99.90
25208;DHT22;13153;52.316;21.166;2023-08-06T09:32:57;28.70;99.90
25208;DHT22;13153;52.316;21.166;2023-08-06T09:35:23;28.70;99.90
25208;DHT22;13153;52.316;21.166;2023-08-06T09:37:49;28.70;99.90
25208;DHT22;13153;52.316;21.166;2023-08-06T09:40:26;28.70;99.90
25208;DHT22;13153;52.316;21.166;2023-08-06T09:42:53;28.70;99.90
25208;DHT22;13153;52.316;21.166;2023-08-06T09:45:19;28.70;99.90
25208;DHT22;13153;52.316;21.166;2023-08-06T09:47:47;28.70;99.90
25208;DHT22;13153;52.316;21.166;2023-08-06T09:50:18;28.60;99.90
25208;DHT22;13153;52.316;21.166;2023-08-06T09:52:45;28.50;99.90
25208;DHT22;13153;52.316;21.166;2023-08-06T09:55:16;28.50;99.90
25208;DHT22;13153;52.316;21.166;2023-08-06T09:57:43;28.50;99.90
25208;DHT22;13153;52.316;21.166;2023-08-06T10:00:10;28.60;99.90
25208;DHT22;13153;52.316;21.166;2023-08-06T10:02:40;28.70;99.90
25208;DHT22;13153;52.316;21.166;2023-08-06T10:05:07;28.60;99.90
25208;DHT22;13153;52.316;21.166;2023-08-06T10:07:34;28.50;99.90
25208;DHT22;13153;52.316;21.166;2023-08-06T10:10:01;28.50;99.90
25208;DHT22;13153;52.316;21.166;2023-08-06T10:12:37;28.40;99.90
25208;DHT22;13153;52.316;21.166;2023-08-06T10:15:11;28.30;99.90
25208;DHT22;13153;52.316;21.166;2023-08-06T10:17:40;28.40;99.90
25208;DHT22;13153;52.316;21.166;2023-08-06T10:20:08;28.40;99.90
25208;DHT22;13153;52.316;21.166;2023-08-06T10:22:35;28.60;99.90
25208;DHT22;13153;52.316;21.166;2023-08-06T10:25:02;28.50;99.90
25208;DHT22;13153;52.316;21.166;2023-08-06T10:30:31;28.60;99.90
25208;DHT22;13153;52.316;21.166;2023-08-06T10:32:59;28.50;99.90
25208;DHT22;13153;52.316;21.166;2023-08-06T10:35:40;28.50;99.90
25208;DHT22;13153;52.316;21.166;2023-08-06T10:38:12;28.60;99.90
25208;DHT22;13153;52.316;21.166;2023-08-06T10:46:01;28.60;99.90
25208;DHT22;13153;52.316;21.166;2023-08-06T10:48:30;28.70;99.90
25208;DHT22;13153;52.316;21.166;2023-08-06T10:50:57;28.70;99.90
25208;DHT22;13153;52.316;21.166;2023-08-06T10:53:22;28.70;99.90
25208;DHT22;13153;52.316;21.166;2023-08-06T10:55:48;28.80;99.90
25208;DHT22;13153;52.316;21.166;2023-08-06T10:58:17;28.80;99.90
25208;DHT22;13153;52.316;21.166;2023-08-06T11:00:43;28.80;99.90
25208;DHT22;13153;52.316;21.166;2023-08-06T11:03:09;28.70;99.90
25208;DHT22;13153;52.316;21.166;2023-08-06T11:05:38;28.70;99.90
25208;DHT22;13153;52.316;21.166;2023-08-06T11:08:04;28.80;99.90
25208;DHT22;13153;52.316;21.166;2023-08-06T11:10:33;28.90;99.90
25208;DHT22;13153;52.316;21.166;2023-08-06T11:13:05;28.90;99.90
25208;DHT22;13153;52.316;21.166;2023-08-06T11:15:33;28.90;99.90
25208;DHT22;13153;52.316;21.166;2023-08-06T11:17:58;28.90;99.90
25208;DHT22;13153;52.316;21.166;2023-08-06T11:20:24;28.90;99.90
25208;DHT22;13153;52.316;21.166;2023-08-06T11:22:50;28.90;99.90
25208;DHT22;13153;52.316;21.166;2023-08-06T11:25:19;28.90;99.90
25208;DHT22;13153;52.316;21.166;2023-08-06T11:27:46;28.80;99.90
25208;DHT22;13153;52.316;21.166;2023-08-06T11:30:11;28.90;99.90
25208;DHT22;13153;52.316;21.166;2023-08-06T11:32:47;28.80;99.90
25208;DHT22;13153;52.316;21.166;2023-08-06T11:35:15;28.70;99.90
25208;DHT22;13153;52.316;21.166;2023-08-06T11:37:45;28.70;99.90
25208;DHT22;13153;52.316;21.166;2023-08-06T11:40:11;28.70;99.90
25208;DHT22;13153;52.316;21.166;2023-08-06T11:42:39;28.70;99.90
25208;DHT22;13153;52.316;21.166;2023-08-06T11:45:06;28.80;99.90
25208;DHT22;13153;52.316;21.166;2023-08-06T11:47:34;28.90;99.90
25208;DHT22;13153;52.316;21.166;2023-08-06T11:50:03;29.10;99.90
25208;DHT22;13153;52.316;21.166;2023-08-06T11:52:30;29.20;99.90
25208;DHT22;13153;52.316;21.166;2023-08-06T11:57:32;29.20;99.90
25208;DHT22;13153;52.316;21.166;2023-08-06T12:00:08;29.20;99.90
25208;DHT22;13153;52.316;21.166;2023-08-06T12:02:38;29.10;99.90
25208;DHT22;13153;52.316;21.166;2023-08-06T12:07:41;29.10;99.90
25208;DHT22;13153;52.316;21.166;2023-08-06T12:10:08;29.00;99.90
25208;DHT22;13153;52.316;21.166;2023-08-06T12:12:35;29.00;99.90
25208;DHT22;13153;52.316;21.166;2023-08-06T12:15:01;28.90;99.90
25208;DHT22;13153;52.316;21.166;2023-08-06T12:17:28;28.90;99.90
25208;DHT22;13153;52.316;21.166;2023-08-06T12:19:54;28.90;99.90
25208;DHT22;13153;52.316;21.166;2023-08-06T12:22:20;28.90;99.90
25208;DHT22;13153;52.316;21.166;2023-08-06T12:24:46;28.80;99.90
25208;DHT22;13153;52.316;21.166;2023-08-06T12:27:13;28.70;99.90
25208;DHT22;13153;52.316;21.166;2023-08-06T12:29:47;28.60;99.90
25208;DHT22;13153;52.316;21.166;2023-08-06T12:32:14;28.60;99.90
25208;DHT22;13153;52.316;21.166;2023-08-06T12:34:41;28.50;99.90
25208;DHT22;13153;52.316;21.166;2023-08-06T12:37:08;28.50;99.90
25208;DHT22;13153;52.316;21.166;2023-08-06T12:39:35;28.40;99.90
25208;DHT22;13153;52.316;21.166;2023-08-06T12:42:03;28.40;99.90
25208;DHT22;13153;52.316;21.166;2023-08-06T12:44:30;28.40;99.90
25208;DHT22;13153;52.316;21.166;2023-08-06T12:46:56;28.40;99.90
25208;DHT22;13153;52.316;21.166;2023-08-06T12:49:22;28.50;99.90
25208;DHT22;13153;52.316;21.166;2023-08-06T12:51:50;28.50;99.90
25208;DHT22;13153;52.316;21.166;2023-08-06T12:54:17;28.40;99.90
25208;DHT22;13153;52.316;21.166;2023-08-06T12:56:44;28.40;99.90
25208;DHT22;13153;52.316;21.166;2023-08-06T12:59:12;28.30;99.90
25208;DHT22;13153;52.316;21.166;2023-08-06T13:01:39;28.40;99.90
25208;DHT22;13153;52.316;21.166;2023-08-06T13:04:04;28.40;99.90
25208;DHT22;13153;52.316;21.166;2023-08-06T13:06:30;28.40;99.90
25208;DHT22;13153;52.316;21.166;2023-08-06T13:09:01;28.40;99.90
25208;DHT22;13153;52.316;21.166;2023-08-06T13:11:31;28.40;99.90
25208;DHT22;13153;52.316;21.166;2023-08-06T13:14:10;28.50;99.90
25208;DHT22;13153;52.316;21.166;2023-08-06T13:16:38;28.60;99.90
25208;DHT22;13153;52.316;21.166;2023-08-06T13:19:06;28.50;99.90
25208;DHT22;13153;52.316;21.166;2023-08-06T13:21:33;28.50;99.90
25208;DHT22;13153;52.316;21.166;2023-08-06T13:24:03;28.60;99.90
25208;DHT22;13153;52.316;21.166;2023-08-06T13:26:30;28.40;99.90
25208;DHT22;13153;52.316;21.166;2023-08-06T13:28:59;28.20;99.90
25208;DHT22;13153;52.316;21.166;2023-08-06T13:31:26;27.90;99.90
25208;DHT22;13153;52.316;21.166;2023-08-06T13:33:57;27.50;99.90
25208;DHT22;13153;52.316;21.166;2023-08-06T13:36:26;27.40;99.90
25208;DHT22;13153;52.316;21.166;2023-08-06T13:38:53;27.40;99.90
25208;DHT22;13153;52.316;21.166;2023-08-06T13:41:19;27.40;99.90
25208;DHT22;13153;52.316;21.166;2023-08-06T13:43:45;27.40;99.90
25208;DHT22;13153;52.316;21.166;2023-08-06T13:46:12;27.40;99.90
25208;DHT22;13153;52.316;21.166;2023-08-06T13:48:46;27.40;99.90
25208;DHT22;13153;52.316;21.166;2023-08-06T13:51:14;27.30;99.90
25208;DHT22;13153;52.316;21.166;2023-08-06T13:53:40;27.30;99.90
25208;DHT22;13153;52.316;21.166;2023-08-06T13:56:07;27.30;99.90
25208;DHT22;13153;52.316;21.166;2023-08-06T13:58:40;27.10;99.90
25208;DHT22;13153;52.316;21.166;2023-08-06T14:01:09;27.10;99.90
25208;DHT22;13153;52.316;21.166;2023-08-06T14:03:35;27.10;99.90
25208;DHT22;13153;52.316;21.166;2023-08-06T14:06:00;27.20;99.90
25208;DHT22;13153;52.316;21.166;2023-08-06T14:08:26;27.20;99.90
25208;DHT22;13153;52.316;21.166;2023-08-06T14:10:52;27.20;99.90
25208;DHT22;13153;52.316;21.166;2023-08-06T14:13:19;27.20;99.90
25208;DHT22;13153;52.316;21.166;2023-08-06T14:15:45;27.20;99.90
25208;DHT22;13153;52.316;21.166;2023-08-06T14:18:14;27.20;99.90
25208;DHT22;13153;52.316;21.166;2023-08-06T14:20:41;27.30;99.90
25208;DHT22;13153;52.316;21.166;2023-08-06T14:23:07;27.30;99.90
25208;DHT22;13153;52.316;21.166;2023-08-06T14:25:33;27.30;99.90
25208;DHT22;13153;52.316;21.166;2023-08-06T14:27:59;27.40;99.90
25208;DHT22;13153;52.316;21.166;2023-08-06T14:30:25;27.40;99.90
25208;DHT22;13153;52.316;21.166;2023-08-06T14:32:51;27.50;99.90
25208;DHT22;13153;52.316;21.166;2023-08-06T14:35:16;27.40;99.90
25208;DHT22;13153;52.316;21.166;2023-08-06T14:37:42;27.40;99.90
25208;DHT22;13153;52.316;21.166;2023-08-06T14:40:10;27.40;99.90
25208;DHT22;13153;52.316;21.166;2023-08-06T14:42:36;27.30;99.90
25208;DHT22;13153;52.316;21.166;2023-08-06T14:45:02;27.30;99.90
25208;DHT22;13153;52.316;21.166;2023-08-06T14:47:29;27.30;99.90
25208;DHT22;13153;52.316;21.166;2023-08-06T14:49:55;27.30;99.90
25208;DHT22;13153;52.316;21.166;2023-08-06T14:52:20;27.30;99.90
25208;DHT22;13153;52.316;21.166;2023-08-06T14:54:46;27.30;99.90
25208;DHT22;13153;52.316;21.166;2023-08-06T14:57:12;27.20;99.90
25208;DHT22;13153;52.316;21.166;2023-08-06T14:59:39;27.30;99.90
25208;DHT22;13153;52.316;21.166;2023-08-06T15:02:06;27.20;99.90
25208;DHT22;13153;52.316;21.166;2023-08-06T15:04:32;27.20;99.90
25208;DHT22;13153;52.316;21.166;2023-08-06T15:06:57;27.20;99.90
25208;DHT22;13153;52.316;21.166;2023-08-06T15:09:23;27.20;99.90
25208;DHT22;13153;52.316;21.166;2023-08-06T15:11:49;27.20;99.90
25208;DHT22;13153;52.316;21.166;2023-08-06T15:14:16;27.20;99.90
25208;DHT22;13153;52.316;21.166;2023-08-06T15:16:42;27.20;99.90
25208;DHT22;13153;52.316;21.166;2023-08-06T15:19:07;27.20;99.90
25208;DHT22;13153;52.316;21.166;2023-08-06T15:21:33;27.20;99.90
25208;DHT22;13153;52.316;21.166;2023-08-06T15:23:59;27.30;99.90
25208;DHT22;13153;52.316;21.166;2023-08-06T15:26:25;27.30;99.90
25208;DHT22;13153;52.316;21.166;2023-08-06T15:28:51;27.30;99.90
25208;DHT22;13153;52.316;21.166;2023-08-06T15:31:20;27.20;99.90
25208;DHT22;13153;52.316;21.166;2023-08-06T15:33:49;27.20;99.90
25208;DHT22;13153;52.316;21.166;2023-08-06T15:36:15;27.30;99.90
25208;DHT22;13153;52.316;21.166;2023-08-06T15:38:40;27.20;99.90
25208;DHT22;13153;52.316;21.166;2023-08-06T15:41:06;27.10;99.90